createdAt,value
2017-11-15T00:01:29.448Z,-2.25
2017-11-15T00:03:57.054Z,-2.29
2017-11-15T00:06:24.653Z,-2.30
2017-11-15T00:08:52.249Z,-2.30
2017-11-15T00:11:20.008Z,-2.23
2017-11-15T00:13:47.608Z,-2.16
2017-11-15T00:16:15.312Z,-2.24
2017-11-15T00:18:42.910Z,-2.27
2017-11-15T00:21:10.567Z,-2.21
2017-11-15T00:23:38.146Z,-2.14
2017-11-15T00:26:05.744Z,-2.08
2017-11-15T00:28:33.323Z,-2.12
2017-11-15T00:31:00.947Z,-2.31
2017-11-15T00:33:28.507Z,-2.34
2017-11-15T00:35:56.082Z,-2.25
2017-11-15T00:38:23.741Z,-2.25
2017-11-15T00:40:51.311Z,-2.26
2017-11-15T00:43:18.867Z,-2.33
2017-11-15T00:45:46.483Z,-2.56
2017-11-15T00:48:14.100Z,-2.66
2017-11-15T00:50:41.676Z,-2.86
2017-11-15T00:53:09.312Z,-2.99
2017-11-15T00:55:36.922Z,-3.01
2017-11-15T00:58:04.523Z,-3.01
2017-11-15T01:00:32.116Z,-3.08
2017-11-15T01:02:59.695Z,-3.08
2017-11-15T01:05:27.280Z,-2.84
2017-11-15T01:07:54.874Z,-2.89
2017-11-15T01:10:22.467Z,-3.02
2017-11-15T01:12:50.090Z,-3.13
2017-11-15T01:15:17.826Z,-3.15
2017-11-15T01:17:45.421Z,-3.18
2017-11-15T01:20:12.978Z,-3.20
2017-11-15T01:22:40.615Z,-3.10
2017-11-15T01:25:08.206Z,-3.06
2017-11-15T01:27:35.792Z,-3.09
2017-11-15T01:30:03.528Z,-3.21
2017-11-15T01:32:31.110Z,-3.30
2017-11-15T01:34:58.709Z,-3.30
2017-11-15T01:37:26.404Z,-3.31
2017-11-15T01:39:53.973Z,-3.35
2017-11-15T01:42:21.611Z,-3.30
2017-11-15T01:44:49.220Z,-3.25
2017-11-15T01:47:16.852Z,-3.31
2017-11-15T01:49:44.482Z,-3.27
2017-11-15T01:52:12.165Z,-3.32
2017-11-15T01:54:39.793Z,-3.41
2017-11-15T01:57:07.620Z,-3.38
2017-11-15T01:59:35.513Z,-3.44
2017-11-15T02:02:03.445Z,-3.41
2017-11-15T02:04:31.043Z,-3.28
2017-11-15T02:06:58.623Z,-3.36
2017-11-15T02:09:26.193Z,-3.31
2017-11-15T02:11:53.775Z,-3.30
2017-11-15T02:14:21.362Z,-3.31
2017-11-15T02:16:48.966Z,-3.16
2017-11-15T02:19:16.608Z,-3.21
2017-11-15T02:21:44.203Z,-3.28
2017-11-15T02:24:11.834Z,-3.28
2017-11-15T02:26:39.417Z,-3.37
2017-11-15T02:29:07.240Z,-3.36
2017-11-15T02:31:34.836Z,-3.37
2017-11-15T02:34:02.423Z,-3.43
2017-11-15T02:36:30.072Z,-3.43
2017-11-15T02:38:57.668Z,-3.43
2017-11-15T02:41:25.279Z,-3.31
2017-11-15T02:43:52.909Z,-3.38
2017-11-15T02:46:20.560Z,-3.39
2017-11-15T02:48:48.143Z,-3.44
2017-11-15T02:51:15.794Z,-3.43
2017-11-15T02:53:43.449Z,-3.47
2017-11-15T02:56:11.321Z,-3.52
2017-11-15T02:58:39.539Z,-3.52
2017-11-15T03:01:09.169Z,-3.57
2017-11-15T03:03:37.279Z,-3.56
2017-11-15T03:06:04.874Z,-3.51
2017-11-15T03:08:32.430Z,-3.47
2017-11-15T03:11:00.055Z,-3.41
2017-11-15T03:13:27.751Z,-3.34
2017-11-15T03:15:55.344Z,-3.35
2017-11-15T03:18:22.949Z,-3.30
2017-11-15T03:20:50.595Z,-3.21
2017-11-15T03:23:18.148Z,-3.19
2017-11-15T03:25:45.752Z,-3.15
2017-11-15T03:28:13.400Z,-3.12
2017-11-15T03:30:40.962Z,-3.17
2017-11-15T03:33:08.614Z,-3.11
2017-11-15T03:35:36.257Z,-3.08
2017-11-15T03:38:03.823Z,-2.98
2017-11-15T03:40:31.469Z,-2.95
2017-11-15T03:42:59.054Z,-2.86
2017-11-15T03:45:26.659Z,-2.88
2017-11-15T03:47:54.879Z,-2.87
2017-11-15T03:50:22.545Z,-2.91
2017-11-15T03:52:50.124Z,-2.96
2017-11-15T03:55:17.776Z,-3.02
2017-11-15T03:57:45.420Z,-3.05
2017-11-15T04:00:13.008Z,-3.03
2017-11-15T04:02:40.578Z,-2.95
2017-11-15T04:05:08.182Z,-2.98
2017-11-15T04:07:35.797Z,-3.04
2017-11-15T04:10:03.480Z,-2.99
2017-11-15T04:12:31.098Z,-2.91
2017-11-15T04:14:58.672Z,-2.80
2017-11-15T04:17:26.266Z,-2.76
2017-11-15T04:19:53.906Z,-2.64
2017-11-15T04:22:21.479Z,-2.79
2017-11-15T04:24:49.063Z,-2.95
2017-11-15T04:27:16.638Z,-3.07
2017-11-15T04:29:44.251Z,-3.12
2017-11-15T04:32:11.857Z,-3.24
2017-11-15T04:34:39.463Z,-3.25
2017-11-15T04:37:07.100Z,-3.25
2017-11-15T04:39:38.320Z,-3.27
2017-11-15T04:42:05.936Z,-3.35
2017-11-15T04:44:33.553Z,-3.33
2017-11-15T04:47:01.149Z,-3.36
2017-11-15T04:49:29.316Z,-3.26
2017-11-15T04:51:56.922Z,-3.32
2017-11-15T04:54:24.524Z,-3.37
2017-11-15T04:56:52.123Z,-3.29
2017-11-15T04:59:19.740Z,-3.32
2017-11-15T05:01:47.404Z,-3.47
2017-11-15T05:04:14.978Z,-3.53
2017-11-15T05:06:42.549Z,-3.54
2017-11-15T05:09:10.346Z,-3.50
2017-11-15T05:11:38.018Z,-3.34
2017-11-15T05:14:05.628Z,-3.27
2017-11-15T05:16:33.254Z,-3.27
2017-11-15T05:19:00.899Z,-3.25
2017-11-15T05:21:28.466Z,-3.30
2017-11-15T05:23:56.037Z,-3.36
2017-11-15T05:26:23.619Z,-3.31
2017-11-15T05:28:51.190Z,-3.38
2017-11-15T05:31:18.959Z,-3.35
2017-11-15T05:33:46.534Z,-3.33
2017-11-15T05:36:14.087Z,-3.37
2017-11-15T05:38:41.693Z,-3.46
2017-11-15T05:41:09.537Z,-3.52
2017-11-15T05:43:37.164Z,-3.51
2017-11-15T05:46:04.743Z,-3.39
2017-11-15T05:48:32.333Z,-3.07
2017-11-15T05:50:59.957Z,-3.12
2017-11-15T05:53:27.547Z,-3.16
2017-11-15T05:55:55.143Z,-3.29
2017-11-15T05:58:22.701Z,-3.41
2017-11-15T06:00:50.287Z,-3.51
2017-11-15T06:03:17.898Z,-3.44
2017-11-15T06:05:45.453Z,-3.48
2017-11-15T06:08:13.045Z,-3.48
2017-11-15T06:10:40.651Z,-3.63
2017-11-15T06:13:08.352Z,-3.69
2017-11-15T06:15:36.033Z,-3.67
2017-11-15T06:18:03.967Z,-3.62
2017-11-15T06:20:31.640Z,-3.60
2017-11-15T06:22:59.227Z,-3.57
2017-11-15T06:25:26.799Z,-3.56
2017-11-15T06:27:54.442Z,-3.47
2017-11-15T06:30:22.077Z,-3.43
2017-11-15T06:32:49.721Z,-3.43
2017-11-15T06:35:17.323Z,-3.31
2017-11-15T06:37:44.933Z,-3.38
2017-11-15T06:40:12.512Z,-3.30
2017-11-15T06:42:40.080Z,-3.20
2017-11-15T06:45:07.730Z,-3.23
2017-11-15T06:47:35.783Z,-3.26
2017-11-15T06:50:03.348Z,-3.13
2017-11-15T06:52:30.921Z,-2.89
2017-11-15T06:54:58.507Z,-2.78
2017-11-15T06:57:26.068Z,-2.76
2017-11-15T06:59:53.663Z,-2.83
2017-11-15T07:02:21.274Z,-2.80
2017-11-15T07:04:48.856Z,-2.79
2017-11-15T07:07:17.079Z,-2.72
2017-11-15T07:09:44.724Z,-2.57
2017-11-15T07:12:12.384Z,-2.41
2017-11-15T07:14:40.528Z,-2.27
2017-11-15T07:17:08.109Z,-2.19
2017-11-15T07:19:35.687Z,-2.12
2017-11-15T07:22:03.748Z,-2.18
2017-11-15T07:24:31.368Z,-2.20
2017-11-15T07:26:58.915Z,-2.11
2017-11-15T07:29:26.497Z,-2.00
2017-11-15T07:31:54.110Z,-2.01
2017-11-15T07:34:21.676Z,-2.01
2017-11-15T07:36:49.261Z,-1.99
2017-11-15T07:39:16.892Z,-1.88
2017-11-15T07:41:44.449Z,-1.75
2017-11-15T07:44:12.014Z,-1.56
2017-11-15T07:46:39.594Z,-1.40
2017-11-15T07:49:07.267Z,-1.33
2017-11-15T07:51:34.889Z,-1.24
2017-11-15T07:54:02.597Z,-1.19
2017-11-15T07:56:30.169Z,-1.08
2017-11-15T07:58:57.745Z,-1.04
2017-11-15T08:01:25.311Z,-0.96
2017-11-15T08:03:52.875Z,-0.93
2017-11-15T08:06:20.489Z,-0.94
2017-11-15T08:08:48.054Z,-0.90
2017-11-15T08:11:15.638Z,-0.86
2017-11-15T08:13:43.270Z,-0.74
2017-11-15T08:16:10.902Z,-0.64
2017-11-15T08:18:38.487Z,-0.63
2017-11-15T08:21:06.075Z,-0.51
2017-11-15T08:23:33.750Z,-0.41
2017-11-15T08:26:01.334Z,-0.29
2017-11-15T08:28:28.943Z,-0.25
2017-11-15T08:30:56.536Z,-0.16
2017-11-15T08:33:24.119Z,-0.12
2017-11-15T08:35:51.709Z,-0.19
2017-11-15T08:38:19.287Z,-0.13
2017-11-15T08:40:46.878Z,-0.11
2017-11-15T08:43:14.523Z,0.02
2017-11-15T08:45:43.013Z,0.20
2017-11-15T08:48:10.562Z,0.14
2017-11-15T08:50:38.214Z,0.18
2017-11-15T08:53:05.825Z,0.10
2017-11-15T08:55:33.372Z,0.03
2017-11-15T08:58:00.985Z,0.10
2017-11-15T09:00:29.556Z,0.20
2017-11-15T09:02:57.095Z,0.15
2017-11-15T09:05:24.673Z,0.18
2017-11-15T09:07:52.274Z,0.37
2017-11-15T09:10:19.971Z,0.40
2017-11-15T09:12:47.527Z,0.30
2017-11-15T09:15:15.155Z,0.22
2017-11-15T09:17:42.692Z,0.40
2017-11-15T09:20:10.234Z,0.52
2017-11-15T09:22:37.865Z,0.49
2017-11-15T09:25:05.521Z,0.55
2017-11-15T09:27:33.093Z,0.68
2017-11-15T09:30:03.602Z,0.67
2017-11-15T09:32:31.170Z,0.74
2017-11-15T09:34:58.754Z,0.86
2017-11-15T09:37:26.464Z,0.93
2017-11-15T09:39:54.024Z,1.15
2017-11-15T09:42:21.604Z,1.39
2017-11-15T09:44:49.225Z,1.62
2017-11-15T09:47:16.850Z,1.81
2017-11-15T09:49:44.444Z,2.08
2017-11-15T09:52:12.022Z,2.19
2017-11-15T09:54:39.610Z,2.08
2017-11-15T09:57:07.195Z,2.22
2017-11-15T09:59:34.784Z,2.05
2017-11-15T10:02:02.661Z,1.77
2017-11-15T10:04:30.257Z,1.94
2017-11-15T10:06:58.301Z,2.01
2017-11-15T10:09:25.853Z,1.96
2017-11-15T10:11:53.459Z,1.97
2017-11-15T10:14:23.152Z,2.07
2017-11-15T10:16:50.825Z,2.14
2017-11-15T10:19:18.404Z,2.34
2017-11-15T10:21:46.111Z,2.14
2017-11-15T10:24:13.841Z,2.20
2017-11-15T10:26:41.487Z,2.20
2017-11-15T10:29:10.167Z,2.04
2017-11-15T10:31:37.991Z,2.27
2017-11-15T10:34:05.657Z,2.29
2017-11-15T10:36:33.296Z,2.57
2017-11-15T10:39:01.045Z,2.92
2017-11-15T10:41:28.644Z,2.89
2017-11-15T10:43:56.262Z,2.88
2017-11-15T10:46:24.039Z,2.80
2017-11-15T10:48:51.766Z,2.80
2017-11-15T10:51:21.171Z,2.72
2017-11-15T10:53:48.871Z,2.91
2017-11-15T10:56:16.581Z,3.00
2017-11-15T10:58:44.405Z,2.93
2017-11-15T11:01:12.935Z,3.05
2017-11-15T11:03:42.372Z,3.25
2017-11-15T11:06:12.807Z,3.55
2017-11-15T11:08:41.561Z,3.59
2017-11-15T11:11:11.034Z,3.40
2017-11-15T11:13:38.926Z,3.56
2017-11-15T11:16:08.441Z,3.52
2017-11-15T11:18:37.856Z,3.69
2017-11-15T11:21:08.144Z,3.71
2017-11-15T11:23:36.055Z,3.83
2017-11-15T11:26:06.833Z,4.10
2017-11-15T11:28:34.759Z,4.44
2017-11-15T11:31:02.463Z,4.50
2017-11-15T11:33:30.224Z,4.54
2017-11-15T11:35:58.887Z,4.68
2017-11-15T11:38:28.540Z,4.93
2017-11-15T11:40:56.238Z,5.10
2017-11-15T11:43:25.539Z,5.23
2017-11-15T11:45:53.339Z,5.16
2017-11-15T11:48:21.017Z,5.03
2017-11-15T11:50:48.762Z,5.05
2017-11-15T11:53:17.151Z,4.99
2017-11-15T11:55:44.777Z,5.78
2017-11-15T11:58:13.810Z,7.15
2017-11-15T12:00:46.215Z,8.81
2017-11-15T12:03:14.284Z,9.08
2017-11-15T12:05:42.202Z,10.29
2017-11-15T12:08:10.235Z,10.17
2017-11-15T12:10:50.768Z,9.98
2017-11-15T12:13:19.190Z,10.03
2017-11-15T12:15:46.818Z,10.75
2017-11-15T12:18:15.134Z,11.24
2017-11-15T12:20:42.824Z,10.42
2017-11-15T12:23:10.828Z,9.90
2017-11-15T12:25:54.402Z,9.77
2017-11-15T12:28:23.223Z,9.42
2017-11-15T12:33:26.309Z,9.59
2017-11-15T12:35:53.974Z,9.90
2017-11-15T12:38:21.697Z,10.11
2017-11-15T12:40:49.387Z,10.18
2017-11-15T12:43:17.123Z,10.17
2017-11-15T12:45:44.818Z,9.93
2017-11-15T12:48:12.710Z,9.93
2017-11-15T12:50:40.352Z,9.75
2017-11-15T12:53:08.598Z,9.28
2017-11-15T12:55:37.023Z,9.22
2017-11-15T12:58:04.702Z,9.40
2017-11-15T13:00:32.419Z,9.10
2017-11-15T13:03:01.672Z,9.06
2017-11-15T13:05:30.496Z,9.18
2017-11-15T13:07:58.197Z,9.50
2017-11-15T13:13:18.882Z,9.16
2017-11-15T13:15:46.586Z,9.28
2017-11-15T13:18:14.350Z,9.14
2017-11-15T13:20:42.088Z,9.15
2017-11-15T13:23:10.053Z,9.03
2017-11-15T13:25:37.767Z,8.77
2017-11-15T13:28:05.551Z,8.83
2017-11-15T13:30:33.326Z,9.12
2017-11-15T13:33:00.965Z,9.94
2017-11-15T13:35:29.901Z,9.72
2017-11-15T13:37:57.713Z,9.52
2017-11-15T13:40:25.451Z,9.15
2017-11-15T13:42:53.152Z,8.94
2017-11-15T13:45:20.917Z,8.57
2017-11-15T13:47:48.631Z,8.17
2017-11-15T13:50:16.331Z,8.23
2017-11-15T13:52:44.944Z,8.11
2017-11-15T13:55:13.044Z,7.66
2017-11-15T13:57:40.956Z,7.72
2017-11-15T14:00:08.758Z,7.55
2017-11-15T14:02:36.457Z,7.29
2017-11-15T14:05:04.200Z,7.21
2017-11-15T14:07:31.900Z,7.00
2017-11-15T14:09:59.532Z,7.12
2017-11-15T14:12:27.844Z,6.86
2017-11-15T14:14:56.246Z,6.68
2017-11-15T14:17:24.125Z,6.59
2017-11-15T14:19:51.975Z,6.44
2017-11-15T14:22:19.802Z,6.32
2017-11-15T14:24:47.512Z,6.30
2017-11-15T14:27:15.215Z,6.11
2017-11-15T14:29:42.867Z,5.93
2017-11-15T14:32:10.545Z,5.66
2017-11-15T14:34:38.250Z,5.29
2017-11-15T14:37:07.167Z,5.27
2017-11-15T14:39:35.956Z,4.84
2017-11-15T14:42:03.761Z,4.79
2017-11-15T14:44:31.567Z,4.71
2017-11-15T14:46:59.250Z,4.28
2017-11-15T14:49:27.846Z,3.85
2017-11-15T14:51:55.637Z,3.63
2017-11-15T14:54:24.697Z,3.54
2017-11-15T14:56:52.482Z,3.37
2017-11-15T14:59:20.133Z,3.06
2017-11-15T15:01:47.997Z,2.84
2017-11-15T15:04:15.838Z,2.72
2017-11-15T15:06:43.631Z,2.66
2017-11-15T15:09:11.227Z,2.53
2017-11-15T15:11:38.827Z,2.32
2017-11-15T15:14:06.392Z,2.18
2017-11-15T15:16:34.797Z,2.08
2017-11-15T15:19:02.357Z,1.99
2017-11-15T15:21:29.923Z,1.92
2017-11-15T15:23:57.662Z,1.83
2017-11-15T15:26:25.294Z,1.74
2017-11-15T15:28:52.901Z,1.68
2017-11-15T15:31:20.461Z,1.60
2017-11-15T15:33:48.032Z,1.49
2017-11-15T15:36:18.123Z,1.39
2017-11-15T15:38:45.702Z,1.26
2017-11-15T15:41:13.568Z,1.16
2017-11-15T15:43:41.138Z,1.04
2017-11-15T15:46:08.698Z,1.03
2017-11-15T15:48:36.306Z,0.97
2017-11-15T15:51:03.863Z,0.85
2017-11-15T15:53:31.416Z,0.82
2017-11-15T15:56:01.270Z,0.82
2017-11-15T15:58:28.909Z,0.75
2017-11-15T16:00:56.459Z,0.63
2017-11-15T16:03:24.046Z,0.58
2017-11-15T16:05:51.631Z,0.50
2017-11-15T16:08:19.183Z,0.45
2017-11-15T16:10:46.772Z,0.36
2017-11-15T16:13:14.339Z,0.35
2017-11-15T16:15:41.891Z,0.30
2017-11-15T16:18:09.498Z,0.32
2017-11-15T16:20:37.052Z,0.31
2017-11-15T16:23:04.701Z,0.23
2017-11-15T16:25:32.306Z,0.15
2017-11-15T16:27:59.876Z,0.11
2017-11-15T16:30:27.440Z,0.10
2017-11-15T16:32:55.088Z,0.10
2017-11-15T16:35:22.661Z,0.19
2017-11-15T16:37:50.221Z,0.17
2017-11-15T16:40:18.132Z,0.20
2017-11-15T16:42:45.750Z,0.19
2017-11-15T16:45:17.017Z,0.13
2017-11-15T16:47:44.628Z,0.08
2017-11-15T16:50:12.199Z,-0.07
2017-11-15T16:52:39.757Z,-0.12
2017-11-15T16:55:07.363Z,-0.19
2017-11-15T16:57:34.940Z,-0.22
2017-11-15T17:00:02.565Z,-0.25
2017-11-15T17:02:30.444Z,-0.36
2017-11-15T17:04:58.012Z,-0.44
2017-11-15T17:07:25.593Z,-0.46
2017-11-15T17:09:53.177Z,-0.50
2017-11-15T17:12:20.764Z,-0.46
2017-11-15T17:14:48.346Z,-0.38
2017-11-15T17:17:15.974Z,-0.43
2017-11-15T17:19:43.552Z,-0.48
2017-11-15T17:22:11.128Z,-0.55
2017-11-15T17:24:39.117Z,-0.66
2017-11-15T17:27:06.953Z,-0.70
2017-11-15T17:29:34.541Z,-0.79
2017-11-15T17:32:02.258Z,-0.84
2017-11-15T17:34:30.029Z,-0.75
2017-11-15T17:36:57.604Z,-0.83
2017-11-15T17:39:25.191Z,-0.82
2017-11-15T17:41:52.806Z,-0.88
2017-11-15T17:44:20.444Z,-0.96
2017-11-15T17:46:48.270Z,-1.01
2017-11-15T17:49:15.843Z,-1.00
2017-11-15T17:51:43.435Z,-1.01
2017-11-15T17:54:11.055Z,-0.95
2017-11-15T17:56:38.666Z,-0.87
2017-11-15T17:59:06.265Z,-0.86
2017-11-15T18:01:33.849Z,-0.93
2017-11-15T18:04:01.434Z,-0.97
2017-11-15T18:06:29.010Z,-1.04
2017-11-15T18:08:56.598Z,-1.11
2017-11-15T18:11:25.747Z,-1.06
2017-11-15T18:13:58.354Z,-1.05
2017-11-15T18:16:25.937Z,-0.96
2017-11-15T18:18:53.555Z,-1.00
2017-11-15T18:21:21.125Z,-1.11
2017-11-15T18:23:48.758Z,-1.23
2017-11-15T18:26:16.580Z,-1.20
2017-11-15T18:28:44.281Z,-1.12
2017-11-15T18:31:12.108Z,-1.14
2017-11-15T18:33:40.558Z,-1.24
2017-11-15T18:36:08.121Z,-1.36
2017-11-15T18:38:36.527Z,-1.35
2017-11-15T18:41:04.168Z,-1.36
2017-11-15T18:43:31.780Z,-1.39
2017-11-15T18:46:04.372Z,-1.41
2017-11-15T18:48:31.989Z,-1.38
2017-11-15T18:50:59.575Z,-1.28
2017-11-15T18:53:27.151Z,-1.23
2017-11-15T18:55:54.772Z,-1.33
2017-11-15T18:58:23.016Z,-1.40
2017-11-15T19:00:50.584Z,-1.46
2017-11-15T19:03:18.184Z,-1.50
2017-11-15T19:05:45.766Z,-1.54
2017-11-15T19:08:13.356Z,-1.58
2017-11-15T19:10:41.453Z,-1.65
2017-11-15T19:13:10.450Z,-1.69
2017-11-15T19:15:38.610Z,-1.71
2017-11-15T19:18:06.888Z,-1.82
2017-11-15T19:20:34.487Z,-1.79
2017-11-15T19:23:02.079Z,-1.77
2017-11-15T19:25:29.658Z,-1.74
2017-11-15T19:27:58.382Z,-1.72
2017-11-15T19:30:31.413Z,-1.76
2017-11-15T19:33:01.437Z,-1.71
2017-11-15T19:35:29.171Z,-1.72
2017-11-15T19:37:56.800Z,-1.64
2017-11-15T19:40:24.485Z,-1.51
2017-11-15T19:42:52.069Z,-1.48
2017-11-15T19:45:19.656Z,-1.58
2017-11-15T19:47:47.235Z,-1.66
2017-11-15T19:50:14.867Z,-1.74
2017-11-15T19:52:42.427Z,-1.83
2017-11-15T19:55:10.006Z,-1.84
2017-11-15T19:57:37.633Z,-1.80
2017-11-15T20:00:06.783Z,-2.00
2017-11-15T20:02:35.114Z,-1.78
2017-11-15T20:05:02.687Z,-1.68
2017-11-15T20:07:30.317Z,-1.71
2017-11-15T20:09:57.879Z,-1.74
2017-11-15T20:12:25.475Z,-1.85
2017-11-15T20:14:53.027Z,-1.92
2017-11-15T20:17:22.053Z,-1.89
2017-11-15T20:19:53.479Z,-1.87
2017-11-15T20:22:21.157Z,-1.89
2017-11-15T20:24:49.822Z,-1.85
2017-11-15T20:27:17.448Z,-1.89
2017-11-15T20:29:46.706Z,-1.90
2017-11-15T20:32:14.279Z,-1.92
2017-11-15T20:34:44.516Z,-1.94
2017-11-15T20:37:13.081Z,-1.99
2017-11-15T20:39:40.884Z,-1.98
2017-11-15T20:42:08.448Z,-1.97
2017-11-15T20:44:36.045Z,-1.90
2017-11-15T20:47:04.010Z,-1.88
2017-11-15T20:49:32.547Z,-1.89
2017-11-15T20:52:00.111Z,-1.95
2017-11-15T20:54:27.711Z,-2.01
2017-11-15T20:56:55.269Z,-1.99
2017-11-15T20:59:22.861Z,-2.02
2017-11-15T21:01:50.459Z,-2.01
2017-11-15T21:04:18.075Z,-1.97
2017-11-15T21:06:45.728Z,-1.96
2017-11-15T21:09:13.321Z,-1.86
2017-11-15T21:11:40.953Z,-1.81
2017-11-15T21:14:08.547Z,-1.83
2017-11-15T21:16:36.148Z,-1.90
2017-11-15T21:19:03.723Z,-1.89
2017-11-15T21:21:31.357Z,-1.95
2017-11-15T21:23:58.941Z,-1.98
2017-11-15T21:26:28.442Z,-2.01
2017-11-15T21:28:56.864Z,-1.80
2017-11-15T21:31:24.494Z,-1.77
2017-11-15T21:33:52.114Z,-1.78
2017-11-15T21:38:58.257Z,-1.62
2017-11-15T21:41:25.923Z,-1.62
2017-11-15T21:43:53.543Z,-1.46
2017-11-15T21:46:21.432Z,-1.33
2017-11-15T21:48:49.002Z,-1.13
2017-11-15T21:51:16.567Z,-1.13
2017-11-15T21:53:44.966Z,-1.16
2017-11-15T21:56:12.559Z,-1.16
2017-11-15T21:58:40.110Z,-1.23
2017-11-15T22:01:07.912Z,-1.29
2017-11-15T22:03:35.509Z,-1.33
2017-11-15T22:06:03.081Z,-1.23
2017-11-15T22:08:30.653Z,-1.27
2017-11-15T22:10:58.251Z,-1.27
2017-11-15T22:13:25.897Z,-1.13
2017-11-15T22:15:53.461Z,-0.97
2017-11-15T22:18:21.029Z,-0.90
2017-11-15T22:20:48.624Z,-0.93
2017-11-15T22:23:16.190Z,-0.88
2017-11-15T22:25:43.799Z,-0.92
2017-11-15T22:28:11.542Z,-0.97
2017-11-15T22:30:39.110Z,-0.95
2017-11-15T22:33:06.814Z,-0.91
2017-11-15T22:35:34.386Z,-0.95
2017-11-15T22:38:01.988Z,-0.99
2017-11-15T22:40:29.583Z,-1.07
2017-11-15T22:42:57.149Z,-1.10
2017-11-15T22:45:24.767Z,-1.10
2017-11-15T22:47:52.359Z,-1.10
2017-11-15T22:50:19.954Z,-1.04
2017-11-15T22:52:47.571Z,-1.16
2017-11-15T22:55:15.169Z,-1.27
2017-11-15T22:57:42.736Z,-1.36
2017-11-15T23:00:10.384Z,-1.39
2017-11-15T23:02:37.960Z,-1.45
2017-11-15T23:05:05.597Z,-1.30
2017-11-15T23:07:33.211Z,-1.30
2017-11-15T23:10:00.796Z,-1.47
2017-11-15T23:15:19.318Z,-1.71
2017-11-15T23:17:46.929Z,-1.82
2017-11-15T23:20:15.450Z,-1.83
2017-11-15T23:22:43.105Z,-1.81
2017-11-15T23:25:10.771Z,-1.92
2017-11-15T23:27:38.425Z,-2.00
2017-11-15T23:30:06.910Z,-1.87
2017-11-15T23:32:34.489Z,-1.86
2017-11-15T23:35:02.048Z,-1.86
2017-11-15T23:37:29.649Z,-1.78
2017-11-15T23:39:57.291Z,-1.81
2017-11-15T23:42:24.939Z,-1.57
2017-11-15T23:44:53.832Z,-1.56
2017-11-15T23:47:21.402Z,-1.58
2017-11-15T23:49:48.975Z,-1.64
2017-11-15T23:52:16.581Z,-1.79
2017-11-15T23:54:44.164Z,-1.91
2017-11-15T23:57:11.927Z,-1.85
2017-11-15T23:59:39.512Z,-1.76
